createdAt,value
2023-02-20T00:00:23.392Z,1021.1
2023-02-20T00:01:23.386Z,1021.1
2023-02-20T00:02:23.456Z,1021
2023-02-20T00:03:23.425Z,1021
2023-02-20T00:04:23.386Z,1020.9
2023-02-20T00:05:23.399Z,1020.9
2023-02-20T00:06:23.391Z,1020.8
2023-02-20T00:07:23.389Z,1020.8
2023-02-20T00:08:23.395Z,1020.8
2023-02-20T00:09:23.407Z,1020.8
2023-02-20T00:10:23.390Z,1020.8
2023-02-20T00:11:23.391Z,1020.8
2023-02-20T00:12:23.389Z,1020.8
2023-02-20T00:13:23.393Z,1020.8
2023-02-20T00:14:23.386Z,1020.8
2023-02-20T00:15:23.388Z,1020.9
2023-02-20T00:16:23.390Z,1020.8
2023-02-20T00:17:23.394Z,1020.8
2023-02-20T00:18:23.392Z,1020.8
2023-02-20T00:19:23.387Z,1020.7
2023-02-20T00:20:23.395Z,1020.8
2023-02-20T00:21:23.390Z,1020.7
2023-02-20T00:22:23.484Z,1020.7
2023-02-20T00:23:23.384Z,1020.7
2023-02-20T00:24:23.387Z,1020.7
2023-02-20T00:25:23.385Z,1020.7
2023-02-20T00:26:23.388Z,1020.7
2023-02-20T00:27:23.384Z,1020.7
2023-02-20T00:28:23.390Z,1020.7
2023-02-20T00:29:23.398Z,1020.7
2023-02-20T00:30:23.500Z,1020.7
2023-02-20T00:31:23.416Z,1020.6
2023-02-20T00:32:23.395Z,1020.6
2023-02-20T00:33:23.383Z,1020.6
2023-02-20T00:34:23.394Z,1020.5
2023-02-20T00:35:23.405Z,1020.5
2023-02-20T00:36:23.386Z,1020.5
2023-02-20T00:37:23.389Z,1020.5
2023-02-20T00:38:23.400Z,1020.5
2023-02-20T00:39:23.396Z,1020.5
2023-02-20T00:40:23.398Z,1020.5
2023-02-20T00:41:23.400Z,1020.5
2023-02-20T00:42:23.384Z,1020.5
2023-02-20T00:43:23.390Z,1020.4
2023-02-20T00:44:23.394Z,1020.5
2023-02-20T00:45:23.396Z,1020.5
2023-02-20T00:46:23.413Z,1020.4
2023-02-20T00:47:23.387Z,1020.4
2023-02-20T00:48:23.402Z,1020.4
2023-02-20T00:49:23.386Z,1020.4
2023-02-20T00:50:23.393Z,1020.4
2023-02-20T00:51:23.386Z,1020.4
2023-02-20T00:52:23.394Z,1020.3
2023-02-20T00:53:23.389Z,1020.3
2023-02-20T00:54:23.390Z,1020.3
2023-02-20T00:55:23.393Z,1020.3
2023-02-20T00:56:23.397Z,1020.3
2023-02-20T00:57:23.387Z,1020.3
2023-02-20T00:58:23.411Z,1020.3
2023-02-20T00:59:23.389Z,1020.2
2023-02-20T01:00:23.391Z,1020.1
2023-02-20T01:01:23.435Z,1020.1
2023-02-20T01:02:23.519Z,1020.1
2023-02-20T01:03:23.403Z,1020.1
2023-02-20T01:04:23.397Z,1020.1
2023-02-20T01:05:23.423Z,1020.1
2023-02-20T01:06:23.388Z,1020.1
2023-02-20T01:07:23.389Z,1020
2023-02-20T01:08:23.389Z,1020
2023-02-20T01:09:23.400Z,1019.9
2023-02-20T01:10:23.404Z,1020
2023-02-20T01:11:23.388Z,1020
2023-02-20T01:12:23.395Z,1020
2023-02-20T01:13:23.389Z,1020
2023-02-20T01:14:23.395Z,1020
2023-02-20T01:15:23.388Z,1020
2023-02-20T01:17:23.397Z,1020
2023-02-20T01:18:23.391Z,1019.9
2023-02-20T01:19:23.382Z,1019.9
2023-02-20T01:20:23.392Z,1019.9
2023-02-20T01:21:23.394Z,1019.9
2023-02-20T01:22:23.390Z,1020
2023-02-20T01:23:23.401Z,1019.9
2023-02-20T01:24:23.394Z,1020
2023-02-20T01:25:23.393Z,1020
2023-02-20T01:26:23.392Z,1020
2023-02-20T01:27:23.387Z,1020
2023-02-20T01:29:23.381Z,1020
2023-02-20T01:30:23.475Z,1019.9
2023-02-20T01:31:23.526Z,1019.9
2023-02-20T01:32:23.481Z,1019.9
2023-02-20T01:33:23.702Z,1019.9
2023-02-20T01:34:23.384Z,1019.9
2023-02-20T01:35:23.383Z,1019.9
2023-02-20T01:36:23.389Z,1019.9
2023-02-20T01:37:23.388Z,1019.9
2023-02-20T01:39:23.416Z,1019.9
2023-02-20T01:40:23.394Z,1019.9
2023-02-20T01:41:23.388Z,1019.9
2023-02-20T01:42:23.394Z,1019.9
2023-02-20T01:43:23.399Z,1019.9
2023-02-20T01:44:23.387Z,1019.9
2023-02-20T01:45:23.392Z,1019.9
2023-02-20T01:46:23.415Z,1020
2023-02-20T01:47:23.403Z,1019.9
2023-02-20T01:48:23.412Z,1019.9
2023-02-20T01:49:23.388Z,1019.8
2023-02-20T01:50:23.390Z,1019.8
2023-02-20T01:51:23.389Z,1019.8
2023-02-20T01:52:23.386Z,1019.8
2023-02-20T01:53:23.397Z,1019.8
2023-02-20T01:54:23.396Z,1019.7
2023-02-20T01:55:23.396Z,1019.8
2023-02-20T01:56:23.399Z,1019.7
2023-02-20T01:57:23.385Z,1019.8
2023-02-20T01:58:23.389Z,1019.8
2023-02-20T01:59:23.411Z,1019.7
2023-02-20T02:00:23.387Z,1019.7
2023-02-20T02:01:23.389Z,1019.6
2023-02-20T02:02:23.394Z,1019.6
2023-02-20T02:03:23.383Z,1019.7
2023-02-20T02:04:23.402Z,1019.6
2023-02-20T02:05:23.399Z,1019.6
2023-02-20T02:06:23.393Z,1019.6
2023-02-20T02:07:23.469Z,1019.6
2023-02-20T02:08:23.407Z,1019.6
2023-02-20T02:09:23.395Z,1019.6
2023-02-20T02:10:23.404Z,1019.6
2023-02-20T02:11:23.396Z,1019.5
2023-02-20T02:12:23.397Z,1019.5
2023-02-20T02:13:23.391Z,1019.5
2023-02-20T02:14:23.379Z,1019.5
2023-02-20T02:15:23.380Z,1019.5
2023-02-20T02:17:23.377Z,1019.3
2023-02-20T02:18:23.392Z,1019.3
2023-02-20T02:19:23.386Z,1019.3
2023-02-20T02:20:23.388Z,1019.3
2023-02-20T02:21:23.388Z,1019.3
2023-02-20T02:22:23.387Z,1019.2
2023-02-20T02:23:23.378Z,1019.2
2023-02-20T02:24:23.374Z,1019.1
2023-02-20T02:25:23.383Z,1019
2023-02-20T02:26:23.393Z,1019
2023-02-20T02:27:23.388Z,1019
2023-02-20T02:28:23.390Z,1018.9
2023-02-20T02:29:23.379Z,1018.9
2023-02-20T02:30:23.406Z,1018.9
2023-02-20T02:32:23.384Z,1018.9
2023-02-20T02:33:23.374Z,1018.9
2023-02-20T02:34:23.376Z,1019
2023-02-20T02:35:23.386Z,1019
2023-02-20T02:36:23.382Z,1018.9
2023-02-20T02:37:23.395Z,1018.9
2023-02-20T02:38:23.440Z,1018.9
2023-02-20T02:39:23.389Z,1018.9
2023-02-20T02:40:23.396Z,1019
2023-02-20T02:42:23.372Z,1019
2023-02-20T02:43:23.386Z,1019
2023-02-20T02:44:23.401Z,1018.9
2023-02-20T02:45:23.555Z,1018.9
2023-02-20T02:47:23.387Z,1018.9
2023-02-20T02:48:23.381Z,1018.8
2023-02-20T02:49:23.399Z,1018.7
2023-02-20T02:50:23.381Z,1018.8
2023-02-20T02:51:23.375Z,1018.7
2023-02-20T02:52:23.380Z,1018.8
2023-02-20T02:53:23.409Z,1018.8
2023-02-20T02:54:23.390Z,1018.8
2023-02-20T02:55:23.372Z,1018.7
2023-02-20T02:56:23.382Z,1018.7
2023-02-20T02:57:23.375Z,1018.8
2023-02-20T02:58:23.376Z,1018.8
2023-02-20T02:59:23.376Z,1018.8
2023-02-20T03:00:23.415Z,1018.8
2023-02-20T03:01:23.461Z,1018.7
2023-02-20T03:02:23.394Z,1018.7
2023-02-20T03:03:23.386Z,1018.7
2023-02-20T03:04:23.452Z,1018.6
2023-02-20T03:05:23.376Z,1018.6
2023-02-20T03:06:23.392Z,1018.6
2023-02-20T03:07:23.379Z,1018.7
2023-02-20T03:08:23.381Z,1018.6
2023-02-20T03:09:23.376Z,1018.6
2023-02-20T03:10:23.381Z,1018.6
2023-02-20T03:11:23.377Z,1018.6
2023-02-20T03:12:23.376Z,1018.6
2023-02-20T03:13:23.376Z,1018.6
2023-02-20T03:14:23.395Z,1018.5
2023-02-20T03:15:23.373Z,1018.5
2023-02-20T03:16:23.448Z,1018.5
2023-02-20T03:17:23.371Z,1018.6
2023-02-20T03:18:23.368Z,1018.6
2023-02-20T03:19:23.382Z,1018.7
2023-02-20T03:20:23.397Z,1018.6
2023-02-20T03:21:23.372Z,1018.6
2023-02-20T03:22:23.383Z,1018.6
2023-02-20T03:23:23.380Z,1018.5
2023-02-20T03:25:23.385Z,1018.5
2023-02-20T03:26:23.384Z,1018.4
2023-02-20T03:27:23.384Z,1018.4
2023-02-20T03:28:23.383Z,1018.5
2023-02-20T03:29:23.378Z,1018.5
2023-02-20T03:30:23.455Z,1018.5
2023-02-20T03:31:23.473Z,1018.5
2023-02-20T03:32:23.469Z,1018.5
2023-02-20T03:33:23.391Z,1018.5
2023-02-20T03:35:23.391Z,1018.5
2023-02-20T03:36:23.384Z,1018.5
2023-02-20T03:37:23.385Z,1018.5
2023-02-20T03:38:23.385Z,1018.5
2023-02-20T03:40:23.384Z,1018.4
2023-02-20T03:41:23.382Z,1018.5
2023-02-20T03:42:23.382Z,1018.4
2023-02-20T03:43:23.377Z,1018.5
2023-02-20T03:44:23.390Z,1018.4
2023-02-20T03:45:23.395Z,1018.4
2023-02-20T03:46:23.384Z,1018.5
2023-02-20T03:47:23.374Z,1018.5
2023-02-20T03:48:23.381Z,1018.4
2023-02-20T03:49:23.381Z,1018.4
2023-02-20T03:50:23.411Z,1018.4
2023-02-20T03:51:23.389Z,1018.5
2023-02-20T03:52:23.384Z,1018.5
2023-02-20T03:53:23.383Z,1018.5
2023-02-20T03:54:23.388Z,1018.5
2023-02-20T03:55:23.403Z,1018.4
2023-02-20T03:56:23.385Z,1018.4
2023-02-20T03:57:23.397Z,1018.4
2023-02-20T03:58:23.454Z,1018.4
2023-02-20T03:59:23.386Z,1018.4
2023-02-20T04:00:23.387Z,1018.4
2023-02-20T04:01:23.412Z,1018.4
2023-02-20T04:02:23.469Z,1018.4
2023-02-20T04:03:23.382Z,1018.4
2023-02-20T04:04:23.379Z,1018.4
2023-02-20T04:06:23.384Z,1018.4
2023-02-20T04:07:23.390Z,1018.4
2023-02-20T04:08:23.401Z,1018.4
2023-02-20T04:09:23.380Z,1018.4
2023-02-20T04:11:23.615Z,1018.4
2023-02-20T04:12:23.394Z,1018.3
2023-02-20T04:13:23.379Z,1018.4
2023-02-20T04:14:23.391Z,1018.3
2023-02-20T04:15:23.373Z,1018.4
2023-02-20T04:16:23.420Z,1018.4
2023-02-20T04:17:23.384Z,1018.3
2023-02-20T04:18:23.392Z,1018.3
2023-02-20T04:19:23.384Z,1018.4
2023-02-20T04:21:23.384Z,1018.4
2023-02-20T04:22:23.378Z,1018.3
2023-02-20T04:23:23.383Z,1018.3
2023-02-20T04:24:23.378Z,1018.3
2023-02-20T04:25:23.382Z,1018.3
2023-02-20T04:26:23.403Z,1018.3
2023-02-20T04:27:23.379Z,1018.3
2023-02-20T04:28:23.374Z,1018.4
2023-02-20T04:29:23.379Z,1018.3
2023-02-20T04:30:23.458Z,1018.4
2023-02-20T04:32:23.385Z,1018.4
2023-02-20T04:33:23.379Z,1018.4
2023-02-20T04:34:23.379Z,1018.4
2023-02-20T04:35:23.384Z,1018.4
2023-02-20T04:36:23.366Z,1018.4
2023-02-20T04:37:23.392Z,1018.4
2023-02-20T04:38:23.377Z,1018.4
2023-02-20T04:39:23.380Z,1018.4
2023-02-20T04:40:23.373Z,1018.3
2023-02-20T04:41:23.374Z,1018.3
2023-02-20T04:42:23.368Z,1018.3
2023-02-20T04:43:23.390Z,1018.3
2023-02-20T04:44:23.393Z,1018.3
2023-02-20T04:45:23.369Z,1018.2
2023-02-20T04:46:23.428Z,1018.2
2023-02-20T04:47:23.371Z,1018.2
2023-02-20T04:48:23.401Z,1018.2
2023-02-20T04:49:23.396Z,1018.3
2023-02-20T04:50:23.362Z,1018.2
2023-02-20T04:51:23.364Z,1018.2
2023-02-20T04:53:23.366Z,1018.2
2023-02-20T04:54:23.432Z,1018.2
2023-02-20T04:55:23.364Z,1018.2
2023-02-20T04:56:23.371Z,1018.2
2023-02-20T04:57:23.398Z,1018.2
2023-02-20T04:58:23.392Z,1018.1
2023-02-20T04:59:23.371Z,1018.2
2023-02-20T05:00:23.373Z,1018.2
2023-02-20T05:01:23.378Z,1018.2
2023-02-20T05:02:23.362Z,1018.2
2023-02-20T05:03:23.372Z,1018.2
2023-02-20T05:04:23.671Z,1018.1
2023-02-20T05:05:23.372Z,1018.1
2023-02-20T05:06:23.368Z,1018.1
2023-02-20T05:07:23.389Z,1018.1
2023-02-20T05:08:23.380Z,1018
2023-02-20T05:09:23.374Z,1018
2023-02-20T05:10:23.364Z,1018.1
2023-02-20T05:11:23.376Z,1018
2023-02-20T05:12:23.377Z,1018
2023-02-20T05:14:23.378Z,1018.1
2023-02-20T05:15:23.374Z,1018
2023-02-20T05:16:23.373Z,1018.1
2023-02-20T05:17:23.368Z,1018.1
2023-02-20T05:18:23.372Z,1018
2023-02-20T05:19:23.373Z,1018.1
2023-02-20T05:20:23.362Z,1018
2023-02-20T05:21:23.375Z,1018
2023-02-20T05:22:23.395Z,1018
2023-02-20T05:23:24.036Z,1018
2023-02-20T05:24:23.368Z,1018
2023-02-20T05:26:23.372Z,1018.1
2023-02-20T05:27:23.376Z,1018.1
2023-02-20T05:28:23.394Z,1018.1
2023-02-20T05:29:23.375Z,1018
2023-02-20T05:30:23.415Z,1018
2023-02-20T05:31:23.509Z,1018
2023-02-20T05:32:23.368Z,1017.9
2023-02-20T05:33:23.375Z,1017.9
2023-02-20T05:34:23.372Z,1018
2023-02-20T05:35:23.393Z,1018
2023-02-20T05:36:23.371Z,1018
2023-02-20T05:37:23.378Z,1018
2023-02-20T05:38:23.369Z,1017.9
2023-02-20T05:39:23.380Z,1017.9
2023-02-20T05:40:23.377Z,1017.8
2023-02-20T05:41:23.377Z,1017.9
2023-02-20T05:42:23.377Z,1017.8
2023-02-20T05:43:23.375Z,1017.9
2023-02-20T05:45:23.374Z,1017.9
2023-02-20T05:46:23.382Z,1017.9
2023-02-20T05:47:23.377Z,1017.8
2023-02-20T05:48:23.365Z,1017.9
2023-02-20T05:50:23.369Z,1017.8
2023-02-20T05:51:23.374Z,1017.8
2023-02-20T05:52:23.371Z,1017.7
2023-02-20T05:53:23.368Z,1017.8
2023-02-20T05:55:23.373Z,1017.7
2023-02-20T05:56:23.367Z,1017.7
2023-02-20T05:57:23.369Z,1017.7
2023-02-20T05:58:23.417Z,1017.7
2023-02-20T06:00:23.370Z,1017.7
2023-02-20T06:01:23.373Z,1017.7
2023-02-20T06:02:23.376Z,1017.7
2023-02-20T06:03:23.372Z,1017.7
2023-02-20T06:04:23.535Z,1017.8
2023-02-20T06:05:23.390Z,1017.8
2023-02-20T06:06:23.368Z,1017.7
2023-02-20T06:07:23.368Z,1017.8
2023-02-20T06:08:23.389Z,1017.8
2023-02-20T06:10:23.366Z,1017.9
2023-02-20T06:11:23.362Z,1017.9
2023-02-20T06:12:23.374Z,1017.9
2023-02-20T06:13:23.365Z,1018
2023-02-20T06:14:23.374Z,1018
2023-02-20T06:15:23.363Z,1018.1
2023-02-20T06:16:23.506Z,1018.1
2023-02-20T06:17:23.370Z,1018.2
2023-02-20T06:18:23.376Z,1018.1
2023-02-20T06:19:23.366Z,1018.1
2023-02-20T06:20:23.372Z,1018.1
2023-02-20T06:21:23.391Z,1018.1
2023-02-20T06:22:23.373Z,1018.1
2023-02-20T06:23:23.377Z,1018.1
2023-02-20T06:24:23.368Z,1018.2
2023-02-20T06:25:23.379Z,1018.2
2023-02-20T06:26:23.428Z,1018.2
2023-02-20T06:27:23.368Z,1018.2
2023-02-20T06:28:23.406Z,1018.2
2023-02-20T06:29:23.374Z,1018.3
2023-02-20T06:31:23.604Z,1018.2
2023-02-20T06:32:23.439Z,1018.2
2023-02-20T06:33:23.399Z,1018.2
2023-02-20T06:35:23.383Z,1018.2
2023-02-20T06:36:23.398Z,1018.3
2023-02-20T06:37:23.809Z,1018.2
2023-02-20T06:38:23.381Z,1018.3
2023-02-20T06:39:23.385Z,1018.4
2023-02-20T06:40:23.384Z,1018.3
2023-02-20T06:41:23.373Z,1018.3
2023-02-20T06:42:23.381Z,1018.4
2023-02-20T06:43:23.375Z,1018.2
2023-02-20T06:44:23.374Z,1018.3
2023-02-20T06:45:23.436Z,1018.2
2023-02-20T06:46:23.426Z,1018.2
2023-02-20T06:47:23.377Z,1018.2
2023-02-20T06:48:23.384Z,1018.2
2023-02-20T06:49:23.382Z,1018.2
2023-02-20T06:50:23.383Z,1018.2
2023-02-20T06:51:23.371Z,1018.2
2023-02-20T06:52:23.378Z,1018.2
2023-02-20T06:53:23.374Z,1018.2
2023-02-20T06:54:23.373Z,1018.2
2023-02-20T06:55:23.385Z,1018.2
2023-02-20T06:56:23.372Z,1018.1
2023-02-20T06:57:23.379Z,1018.1
2023-02-20T06:58:23.406Z,1018.1
2023-02-20T06:59:23.380Z,1018.2
2023-02-20T07:00:23.377Z,1018.2
2023-02-20T07:01:23.385Z,1018.1
2023-02-20T07:02:23.380Z,1018.2
2023-02-20T07:03:23.374Z,1018.1
2023-02-20T07:04:24.115Z,1018.2
2023-02-20T07:06:23.396Z,1018.1
2023-02-20T07:07:23.364Z,1018.2
2023-02-20T07:08:23.407Z,1018.2
2023-02-20T07:09:23.376Z,1018.2
2023-02-20T07:10:23.369Z,1018.2
2023-02-20T07:11:23.371Z,1018.2
2023-02-20T07:12:23.382Z,1018.2
2023-02-20T07:13:23.368Z,1018.2
2023-02-20T07:14:23.384Z,1018.2
2023-02-20T07:16:23.497Z,1018.1
2023-02-20T07:17:23.390Z,1018.1
2023-02-20T07:18:23.378Z,1018.1
2023-02-20T07:19:23.371Z,1018.1
2023-02-20T07:20:23.377Z,1018.1
2023-02-20T07:21:23.369Z,1018.1
2023-02-20T07:22:23.372Z,1018.1
2023-02-20T07:23:23.381Z,1018.1
2023-02-20T07:24:23.376Z,1018.1
2023-02-20T07:25:23.373Z,1018.1
2023-02-20T07:26:23.372Z,1018.1
2023-02-20T07:27:23.372Z,1018.1
2023-02-20T07:28:23.372Z,1018.1
2023-02-20T07:29:23.376Z,1018.1
2023-02-20T07:30:23.383Z,1018.1
2023-02-20T07:31:23.410Z,1018
2023-02-20T07:32:23.512Z,1018.1
2023-02-20T07:33:23.366Z,1018.1
2023-02-20T07:34:23.458Z,1018.2
2023-02-20T07:35:23.375Z,1018.1
2023-02-20T07:36:23.367Z,1018.1
2023-02-20T07:37:23.375Z,1018.1
2023-02-20T07:38:23.360Z,1018.1
2023-02-20T07:39:23.389Z,1018.1
2023-02-20T07:40:23.362Z,1018.2
2023-02-20T07:41:23.380Z,1018.2
2023-02-20T07:42:23.375Z,1018.2
2023-02-20T07:43:23.417Z,1018.3
2023-02-20T07:44:23.375Z,1018.2
2023-02-20T07:45:23.374Z,1018.2
2023-02-20T07:46:23.384Z,1018.2
2023-02-20T07:47:23.496Z,1018.3
2023-02-20T07:48:23.389Z,1018.3
2023-02-20T07:49:23.366Z,1018.2
2023-02-20T07:50:23.370Z,1018.3
2023-02-20T07:51:23.371Z,1018.2
2023-02-20T07:52:23.570Z,1018.2
2023-02-20T07:53:23.386Z,1018.2
2023-02-20T07:54:23.361Z,1018.2
2023-02-20T07:55:23.364Z,1018.2
2023-02-20T07:56:23.370Z,1018.1
2023-02-20T07:57:23.370Z,1018.2
2023-02-20T07:58:23.374Z,1018.2
2023-02-20T07:59:23.362Z,1018.1
2023-02-20T08:00:23.376Z,1018.1
2023-02-20T08:01:23.383Z,1018.2
2023-02-20T08:02:23.373Z,1018.2
2023-02-20T08:03:23.386Z,1018.2
2023-02-20T08:04:23.361Z,1018.1
2023-02-20T08:05:23.453Z,1018.1
2023-02-20T08:06:23.361Z,1018.1
2023-02-20T08:07:23.373Z,1018.2
2023-02-20T08:08:23.388Z,1018.2
2023-02-20T08:09:23.366Z,1018.2
2023-02-20T08:10:23.374Z,1018.2
2023-02-20T08:11:23.415Z,1018.3
2023-02-20T08:12:23.366Z,1018.2
2023-02-20T08:13:23.375Z,1018.2
2023-02-20T08:14:23.368Z,1018.2
2023-02-20T08:15:23.374Z,1018.2
2023-02-20T08:16:23.386Z,1018.2
2023-02-20T08:17:24.219Z,1018.3
2023-02-20T08:18:24.298Z,1018.2
2023-02-20T08:19:23.449Z,1018.3
2023-02-20T08:20:23.375Z,1018.3
2023-02-20T08:21:23.362Z,1018.3
2023-02-20T08:22:30.349Z,1018.3
2023-02-20T08:23:23.363Z,1018.2
2023-02-20T08:24:24.045Z,1018.1
2023-02-20T08:25:23.358Z,1018.2
2023-02-20T08:26:23.405Z,1018.2
2023-02-20T08:27:23.367Z,1018.2
2023-02-20T08:28:23.463Z,1018.2
2023-02-20T08:29:23.358Z,1018.2
2023-02-20T08:30:23.419Z,1018.2
2023-02-20T08:31:32.235Z,1018.2
2023-02-20T08:32:23.519Z,1018.1
2023-02-20T08:33:23.386Z,1018.1
2023-02-20T08:34:23.367Z,1018.1
2023-02-20T08:35:23.371Z,1018
2023-02-20T08:37:23.368Z,1018.2
2023-02-20T08:38:23.382Z,1018.2
2023-02-20T08:39:23.370Z,1018.1
2023-02-20T08:40:23.436Z,1018.1
2023-02-20T08:41:23.367Z,1018.1
2023-02-20T08:42:23.366Z,1018
2023-02-20T08:43:23.368Z,1018.1
2023-02-20T08:44:23.368Z,1018
2023-02-20T08:45:23.370Z,1018
2023-02-20T08:46:23.373Z,1018
2023-02-20T08:47:23.358Z,1018
2023-02-20T08:48:23.438Z,1018
2023-02-20T08:49:25.624Z,1018
2023-02-20T08:50:23.391Z,1018
2023-02-20T08:51:23.364Z,1018
2023-02-20T08:52:23.373Z,1018
2023-02-20T08:53:23.368Z,1018
2023-02-20T08:54:23.366Z,1018
2023-02-20T08:55:23.367Z,1017.9
2023-02-20T08:56:23.363Z,1018
2023-02-20T08:57:23.379Z,1017.9
2023-02-20T08:58:23.360Z,1018
2023-02-20T08:59:23.432Z,1018
2023-02-20T09:00:23.421Z,1017.9
2023-02-20T09:01:23.414Z,1018
2023-02-20T09:02:23.378Z,1018
2023-02-20T09:03:23.383Z,1018.1
2023-02-20T09:04:23.614Z,1018
2023-02-20T09:05:23.373Z,1018
2023-02-20T09:06:23.360Z,1018
2023-02-20T09:07:23.368Z,1018
2023-02-20T09:08:23.378Z,1017.9
2023-02-20T09:09:23.371Z,1018
2023-02-20T09:10:23.358Z,1018
2023-02-20T09:11:23.378Z,1017.9
2023-02-20T09:12:23.392Z,1018
2023-02-20T09:13:23.362Z,1018
2023-02-20T09:14:23.369Z,1018
2023-02-20T09:15:23.368Z,1018
2023-02-20T09:16:23.383Z,1018
2023-02-20T09:17:23.368Z,1018
2023-02-20T09:18:23.379Z,1018
2023-02-20T09:19:23.371Z,1018
2023-02-20T09:20:23.368Z,1018.1
2023-02-20T09:21:23.396Z,1018.1
2023-02-20T09:22:23.370Z,1018
2023-02-20T09:23:23.365Z,1018.1
2023-02-20T09:24:23.374Z,1018
2023-02-20T09:25:23.364Z,1018
2023-02-20T09:26:23.396Z,1018
2023-02-20T09:27:23.437Z,1018
2023-02-20T09:28:23.394Z,1017.9
2023-02-20T09:29:23.363Z,1017.9
2023-02-20T09:30:23.431Z,1017.9
2023-02-20T09:31:23.426Z,1018
2023-02-20T09:32:23.462Z,1017.9
2023-02-20T09:33:23.371Z,1017.9
2023-02-20T09:34:23.364Z,1017.8
2023-02-20T09:35:23.385Z,1017.8
2023-02-20T09:36:23.371Z,1017.8
2023-02-20T09:37:23.376Z,1017.9
2023-02-20T09:38:23.371Z,1017.9
2023-02-20T09:39:23.375Z,1017.8
2023-02-20T09:40:23.375Z,1017.8
2023-02-20T09:41:23.377Z,1017.8
2023-02-20T09:42:23.376Z,1017.8
2023-02-20T09:43:23.376Z,1017.8
2023-02-20T09:44:23.379Z,1017.7
2023-02-20T09:45:23.371Z,1017.7
2023-02-20T09:46:23.421Z,1017.7
2023-02-20T09:47:23.371Z,1017.7
2023-02-20T09:48:23.375Z,1017.6
2023-02-20T09:49:23.365Z,1017.6
2023-02-20T09:50:23.437Z,1017.7
2023-02-20T09:51:23.377Z,1017.7
2023-02-20T09:52:23.389Z,1017.7
2023-02-20T09:53:23.396Z,1017.6
2023-02-20T09:54:23.383Z,1017.7
2023-02-20T09:55:23.369Z,1017.7
2023-02-20T09:56:23.392Z,1017.7
2023-02-20T09:57:23.370Z,1017.7
2023-02-20T09:58:23.374Z,1017.6
2023-02-20T09:59:23.372Z,1017.7
2023-02-20T10:00:23.427Z,1017.6
2023-02-20T10:01:23.386Z,1017.7
2023-02-20T10:02:23.653Z,1017.7
2023-02-20T10:03:23.447Z,1017.7
2023-02-20T10:04:23.365Z,1017.7
2023-02-20T10:05:23.370Z,1017.5
2023-02-20T10:06:23.368Z,1017.6
2023-02-20T10:07:23.384Z,1017.5
2023-02-20T10:08:23.378Z,1017.5
2023-02-20T10:09:23.372Z,1017.7
2023-02-20T10:10:23.463Z,1017.5
2023-02-20T10:11:23.378Z,1017.6
2023-02-20T10:12:23.375Z,1017.6
2023-02-20T10:13:23.369Z,1017.6
2023-02-20T10:14:23.374Z,1017.5
2023-02-20T10:15:23.377Z,1017.5
2023-02-20T10:16:23.417Z,1017.5
2023-02-20T10:17:23.370Z,1017.5
2023-02-20T10:18:23.361Z,1017.6
2023-02-20T10:19:23.370Z,1017.5
2023-02-20T10:20:23.374Z,1017.5
2023-02-20T10:21:23.372Z,1017.6
2023-02-20T10:22:23.377Z,1017.5
2023-02-20T10:23:23.424Z,1017.6
2023-02-20T10:24:23.371Z,1017.6
2023-02-20T10:25:23.367Z,1017.6
2023-02-20T10:26:23.388Z,1017.6
2023-02-20T10:27:23.384Z,1017.7
2023-02-20T10:28:23.369Z,1017.7
2023-02-20T10:29:23.372Z,1017.7
2023-02-20T10:30:23.438Z,1017.7
2023-02-20T10:31:23.525Z,1017.8
2023-02-20T10:32:23.372Z,1017.8
2023-02-20T10:33:23.376Z,1017.7
2023-02-20T10:34:23.383Z,1017.8
2023-02-20T10:35:23.382Z,1017.7
2023-02-20T10:36:23.368Z,1017.7
2023-02-20T10:37:23.371Z,1017.7
2023-02-20T10:38:23.377Z,1017.6
2023-02-20T10:39:23.462Z,1017.6
2023-02-20T10:40:23.407Z,1017.6
2023-02-20T10:41:23.397Z,1017.5
2023-02-20T10:42:23.367Z,1017.6
2023-02-20T10:43:23.430Z,1017.7
2023-02-20T10:44:23.400Z,1017.6
2023-02-20T10:45:23.378Z,1017.5
2023-02-20T10:46:23.545Z,1017.5
2023-02-20T10:47:23.370Z,1017.4
2023-02-20T10:48:23.377Z,1017.5
2023-02-20T10:49:23.372Z,1017.4
2023-02-20T10:50:23.379Z,1017.4
2023-02-20T10:51:23.394Z,1017.6
2023-02-20T10:52:33.036Z,1017.3
2023-02-20T10:53:23.385Z,1017.3
2023-02-20T10:54:23.399Z,1017.3
2023-02-20T10:55:23.372Z,1017.4
2023-02-20T10:56:23.372Z,1017.3
2023-02-20T10:57:23.376Z,1017.3
2023-02-20T10:58:23.395Z,1017.3
2023-02-20T10:59:23.365Z,1017.4
2023-02-20T11:00:23.365Z,1017.4
2023-02-20T11:01:23.520Z,1017.4
2023-02-20T11:02:23.450Z,1017.4
2023-02-20T11:03:23.355Z,1017.4
2023-02-20T11:04:23.406Z,1017.5
2023-02-20T11:05:23.683Z,1017.5
2023-02-20T11:06:23.362Z,1017.5
2023-02-20T11:07:23.362Z,1017.6
2023-02-20T11:08:23.376Z,1017.5
2023-02-20T11:09:23.405Z,1017.5
2023-02-20T11:10:23.364Z,1017.6
2023-02-20T11:11:23.401Z,1017.6
2023-02-20T11:12:23.370Z,1017.6
2023-02-20T11:13:23.365Z,1017.5
2023-02-20T11:14:34.106Z,1017.5
2023-02-20T11:15:23.369Z,1017.5
2023-02-20T11:16:23.460Z,1017.4
2023-02-20T11:17:23.364Z,1017.5
2023-02-20T11:18:23.377Z,1017.4
2023-02-20T11:19:23.445Z,1017.4
2023-02-20T11:20:23.406Z,1017.4
2023-02-20T11:21:23.367Z,1017.4
2023-02-20T11:22:23.366Z,1017.4
2023-02-20T11:23:23.399Z,1017.4
2023-02-20T11:24:23.373Z,1017.4
2023-02-20T11:25:23.410Z,1017.5
2023-02-20T11:26:23.421Z,1017.5
2023-02-20T11:27:23.368Z,1017.5
2023-02-20T11:28:23.382Z,1017.5
2023-02-20T11:29:23.391Z,1017.4
2023-02-20T11:30:23.387Z,1017.5
2023-02-20T11:31:23.450Z,1017.4
2023-02-20T11:32:23.396Z,1017.4
2023-02-20T11:33:23.375Z,1017.5
2023-02-20T11:34:23.370Z,1017.4
2023-02-20T11:35:23.379Z,1017.5
2023-02-20T11:36:23.370Z,1017.5
2023-02-20T11:37:23.368Z,1017.5
2023-02-20T11:38:23.384Z,1017.5
2023-02-20T11:39:23.375Z,1017.5
2023-02-20T11:40:23.367Z,1017.5
2023-02-20T11:41:25.708Z,1017.5
2023-02-20T11:42:23.414Z,1017.6
2023-02-20T11:43:23.372Z,1017.6
2023-02-20T11:44:23.370Z,1017.6
2023-02-20T11:45:23.377Z,1017.7
2023-02-20T11:46:23.498Z,1017.6
2023-02-20T11:47:23.384Z,1017.7
2023-02-20T11:48:23.374Z,1017.7
2023-02-20T11:49:23.373Z,1017.7
2023-02-20T11:50:23.417Z,1017.8
2023-02-20T11:51:23.366Z,1017.7
2023-02-20T11:52:23.366Z,1017.7
2023-02-20T11:53:23.412Z,1017.7
2023-02-20T11:54:23.371Z,1017.5
2023-02-20T11:55:23.753Z,1017.5
2023-02-20T11:56:23.390Z,1017.5
2023-02-20T11:57:23.388Z,1017.6
2023-02-20T11:58:23.376Z,1017.6
2023-02-20T11:59:23.413Z,1017.7
2023-02-20T12:00:23.364Z,1017.7
2023-02-20T12:01:23.375Z,1017.8
2023-02-20T12:02:23.408Z,1017.7
2023-02-20T12:03:23.542Z,1017.5
2023-02-20T12:04:23.435Z,1017.4
2023-02-20T12:05:23.522Z,1017.4
2023-02-20T12:06:23.364Z,1017.3
2023-02-20T12:07:23.380Z,1017.3
2023-02-20T12:08:23.356Z,1017.3
2023-02-20T12:09:23.374Z,1017.4
2023-02-20T12:10:23.356Z,1017.6
2023-02-20T12:11:23.369Z,1017.5
2023-02-20T12:12:23.359Z,1017.5
2023-02-20T12:13:23.369Z,1017.4
2023-02-20T12:14:23.358Z,1017.3
2023-02-20T12:15:23.359Z,1017.2
2023-02-20T12:16:23.413Z,1017.2
2023-02-20T12:17:25.082Z,1017.2
2023-02-20T12:18:23.365Z,1017.3
2023-02-20T12:19:23.361Z,1017.2
2023-02-20T12:20:23.371Z,1017.3
2023-02-20T12:21:23.358Z,1017.3
2023-02-20T12:22:23.361Z,1017.3
2023-02-20T12:23:23.357Z,1017.2
2023-02-20T12:24:23.367Z,1017.1
2023-02-20T12:25:23.364Z,1017.1
2023-02-20T12:26:23.359Z,1017
2023-02-20T12:27:23.385Z,1017.1
2023-02-20T12:28:23.361Z,1017.1
2023-02-20T12:29:23.359Z,1017
2023-02-20T12:30:23.427Z,1017.1
2023-02-20T12:31:23.505Z,1017
2023-02-20T12:32:23.424Z,1017
2023-02-20T12:33:23.365Z,1016.9
2023-02-20T12:34:23.361Z,1016.9
2023-02-20T12:35:23.373Z,1016.9
2023-02-20T12:36:23.364Z,1016.8
2023-02-20T12:37:23.657Z,1016.8
2023-02-20T12:38:23.398Z,1016.7
2023-02-20T12:39:23.367Z,1016.7
2023-02-20T12:40:23.360Z,1016.8
2023-02-20T12:41:23.372Z,1016.8
2023-02-20T12:42:23.364Z,1016.8
2023-02-20T12:43:23.369Z,1016.8
2023-02-20T12:44:23.372Z,1016.8
2023-02-20T12:45:23.370Z,1016.7
2023-02-20T12:46:23.404Z,1016.6
2023-02-20T12:47:23.367Z,1016.5
2023-02-20T12:48:23.363Z,1016.5
2023-02-20T12:49:23.366Z,1016.5
2023-02-20T12:50:23.365Z,1016.5
2023-02-20T12:51:23.380Z,1016.5
2023-02-20T12:52:23.369Z,1016.5
2023-02-20T12:53:23.364Z,1016.5
2023-02-20T12:54:23.367Z,1016.5
2023-02-20T12:55:23.371Z,1016.4
2023-02-20T12:56:23.366Z,1016.4
2023-02-20T12:57:23.433Z,1016.4
2023-02-20T12:58:23.383Z,1016.5
2023-02-20T12:59:23.408Z,1016.4
2023-02-20T13:00:23.364Z,1016.5
2023-02-20T13:01:38.290Z,1016.5